Time;durP1;ratioP1;P1;durP2;ratioP2;P2;SDS_P1;SDS_P2;PMS_P1;PMS_P2;Temp;Humidity;BMP_temperature;BMP_pressure;BME280_temperature;BME280_humidity;BME280_pressure;Samples;Min_cycle;Max_cycle;Signal;HPM_P1;HPM_P2
2023/09/08 00:00:57;;;;;;;1.98;1.77;;;23.40;66.30;;;;;;5110666;28;20063;-67
2023/09/08 00:03:23;;;;;;;1.95;1.77;;;23.40;66.30;;;;;;5108220;28;20070;-67
2023/09/08 00:05:49;;;;;;;1.77;1.17;;;23.30;66.40;;;;;;5104065;28;20482;-64
2023/09/08 00:08:15;;;;;;;1.55;1.40;;;23.30;66.40;;;;;;5109682;28;20024;-64
2023/09/08 00:10:40;;;;;;;4.18;1.50;;;23.20;66.60;;;;;;5110534;28;20497;-64
2023/09/08 00:13:06;;;;;;;1.35;1.25;;;23.20;66.60;;;;;;5109425;27;20019;-67
2023/09/08 00:15:35;;;;;;;2.50;1.30;;;23.10;66.60;;;;;;5109466;28;20122;-66
2023/09/08 00:18:00;;;;;;;1.85;1.42;;;23.20;66.70;;;;;;5106971;28;20471;-66
2023/09/08 00:20:26;;;;;;;2.13;1.27;;;23.10;66.70;;;;;;5110622;28;20034;-66
2023/09/08 00:22:52;;;;;;;1.40;1.20;;;23.10;66.70;;;;;;5107380;28;20058;-66
2023/09/08 00:25:17;;;;;;;1.95;1.55;;;23.00;66.80;;;;;;5107045;28;20062;-67
2023/09/08 00:27:43;;;;;;;2.63;1.30;;;23.00;66.90;;;;;;5108722;28;20027;-66
2023/09/08 00:30:09;;;;;;;3.35;1.48;;;23.00;67.00;;;;;;5109496;28;20030;-66
2023/09/08 00:32:35;;;;;;;2.30;1.67;;;22.90;67.00;;;;;;5109038;28;20494;-66
2023/09/08 00:35:01;;;;;;;1.20;1.10;;;22.90;67.10;;;;;;5109439;28;20076;-66
2023/09/08 00:37:27;;;;;;;3.58;1.40;;;22.80;67.10;;;;;;5108349;28;20031;-67
2023/09/08 00:39:52;;;;;;;1.45;1.35;;;22.70;67.20;;;;;;5108993;28;20024;-64
2023/09/08 00:42:18;;;;;;;1.70;1.60;;;22.70;67.30;;;;;;5108246;28;20398;-65
2023/09/08 00:44:43;;;;;;;2.58;1.42;;;22.70;67.40;;;;;;5106385;28;20062;-65
2023/09/08 00:47:09;;;;;;;2.90;1.40;;;22.60;67.40;;;;;;5108484;28;20032;-64
2023/09/08 00:49:35;;;;;;;1.65;1.42;;;22.60;67.50;;;;;;5108032;28;20038;-65
2023/09/08 00:52:01;;;;;;;2.17;1.40;;;22.50;67.60;;;;;;5107106;28;20023;-65
2023/09/08 00:54:26;;;;;;;1.73;1.63;;;22.50;67.70;;;;;;5108971;28;20035;-65
2023/09/08 00:57:03;;;;;;;2.10;1.77;;;22.40;67.80;;;;;;5108657;28;20360;-64
2023/09/08 00:59:32;;;;;;;1.98;1.70;;;22.40;67.80;;;;;;5109108;28;20053;-64
2023/09/08 01:01:57;;;;;;;2.22;1.50;;;22.40;67.90;;;;;;5108741;28;20023;-66
2023/09/08 01:04:23;;;;;;;1.88;1.50;;;22.30;67.90;;;;;;5107730;28;20420;-66
2023/09/08 01:06:50;;;;;;;1.88;1.42;;;22.30;68.00;;;;;;5108994;28;20588;-67
2023/09/08 01:09:17;;;;;;;1.67;1.27;;;22.30;68.00;;;;;;5108656;28;20046;-66
2023/09/08 01:11:42;;;;;;;1.50;1.15;;;22.20;68.00;;;;;;5109869;28;20055;-66
2023/09/08 01:14:11;;;;;;;1.63;1.30;;;22.20;68.20;;;;;;5107228;28;20071;-67
2023/09/08 01:16:37;;;;;;;1.60;1.50;;;22.20;68.20;;;;;;5109033;28;20043;-67
2023/09/08 01:19:04;;;;;;;2.17;1.30;;;22.10;68.20;;;;;;5104546;28;20453;-67
2023/09/08 01:21:48;;;;;;;2.33;1.80;;;22.10;68.30;;;;;;5108981;28;20038;-67
2023/09/08 01:24:42;;;;;;;1.95;1.50;;;22.00;68.30;;;;;;5105660;28;20098;-65
2023/09/08 01:27:09;;;;;;;1.33;1.10;;;22.00;68.40;;;;;;5108591;28;20032;-65
2023/09/08 01:29:36;;;;;;;2.00;1.60;;;21.90;68.60;;;;;;5106050;28;20080;-65
2023/09/08 01:32:04;;;;;;;2.63;1.63;;;21.90;68.60;;;;;;5108353;28;20023;-64
2023/09/08 01:34:30;;;;;;;1.67;1.30;;;21.90;68.70;;;;;;5107606;28;20081;-64
2023/09/08 01:36:56;;;;;;;2.45;1.60;;;21.80;68.70;;;;;;5104467;28;20503;-66
2023/09/08 01:39:22;;;;;;;1.90;1.48;;;21.80;68.80;;;;;;5106408;28;20043;-67
2023/09/08 01:41:48;;;;;;;3.08;1.63;;;21.80;69.40;;;;;;5113794;28;20483;-67
2023/09/08 01:44:13;;;;;;;3.03;1.23;;;21.80;68.80;;;;;;5110374;28;20609;-67
2023/09/08 01:46:40;;;;;;;2.35;1.40;;;21.70;68.80;;;;;;5111697;28;20112;-67
2023/09/08 01:49:06;;;;;;;1.83;1.38;;;21.70;68.90;;;;;;5107975;28;20115;-67
2023/09/08 01:51:32;;;;;;;1.20;1.10;;;21.70;69.00;;;;;;5111529;28;20445;-66
2023/09/08 01:53:57;;;;;;;2.53;1.55;;;21.70;69.00;;;;;;5107063;28;20092;-67
2023/09/08 01:56:23;;;;;;;2.75;1.67;;;21.60;69.00;;;;;;5110408;28;20027;-67
2023/09/08 01:58:49;;;;;;;1.40;1.30;;;21.60;69.10;;;;;;5085101;28;20030;-67
2023/09/08 02:01:14;;;;;;;2.80;1.60;;;21.60;69.20;;;;;;5111138;28;20063;-67
2023/09/08 02:03:40;;;;;;;2.33;1.45;;;21.60;69.30;;;;;;5108562;28;20097;-65
2023/09/08 02:06:05;;;;;;;2.45;1.45;;;21.50;69.30;;;;;;5106274;28;20545;-67
2023/09/08 02:08:31;;;;;;;5.28;1.42;;;21.50;69.30;;;;;;5110882;28;20477;-65
2023/09/08 02:10:57;;;;;;;1.70;1.40;;;21.40;69.30;;;;;;5107023;27;20442;-65
2023/09/08 02:13:23;;;;;;;1.52;1.40;;;21.40;69.30;;;;;;5108990;28;20027;-64
2023/09/08 02:15:48;;;;;;;1.65;1.20;;;21.40;69.40;;;;;;5111185;28;20120;-64
2023/09/08 02:18:14;;;;;;;1.38;1.27;;;21.40;69.50;;;;;;5110811;28;20036;-65
2023/09/08 02:20:40;;;;;;;2.20;1.50;;;21.30;69.50;;;;;;5112140;28;20038;-65
2023/09/08 02:23:06;;;;;;;1.88;1.30;;;21.30;69.50;;;;;;5110860;28;20039;-65
2023/09/08 02:25:32;;;;;;;1.98;1.30;;;21.30;69.60;;;;;;5112072;28;20482;-65
2023/09/08 02:27:58;;;;;;;2.17;1.45;;;21.20;69.60;;;;;;5110447;28;20077;-67
2023/09/08 02:30:24;;;;;;;1.48;1.38;;;21.20;70.00;;;;;;5111044;28;20024;-66
2023/09/08 02:32:49;;;;;;;2.92;1.55;;;21.20;69.80;;;;;;5109330;28;20090;-66
2023/09/08 02:35:15;;;;;;;3.38;1.30;;;21.20;69.80;;;;;;5112160;28;20039;-67
2023/09/08 02:37:41;;;;;;;2.88;1.15;;;21.10;69.80;;;;;;5108110;28;20039;-64
2023/09/08 02:40:07;;;;;;;2.85;1.80;;;21.10;69.80;;;;;;5105182;28;20111;-64
2023/09/08 02:42:33;;;;;;;3.10;1.98;;;21.00;70.00;;;;;;5110878;28;20028;-67
2023/09/08 02:44:59;;;;;;;3.50;1.80;;;21.00;70.00;;;;;;5110682;27;20031;-65
2023/09/08 02:47:24;;;;;;;2.08;1.30;;;21.00;70.10;;;;;;5109044;28;20094;-65
2023/09/08 02:49:50;;;;;;;1.63;1.45;;;21.00;70.20;;;;;;5112174;28;20028;-64
2023/09/08 02:52:16;;;;;;;2.63;1.85;;;20.90;70.30;;;;;;5109171;28;20028;-64
2023/09/08 02:54:41;;;;;;;2.40;1.65;;;20.90;70.20;;;;;;5111429;28;20544;-65
2023/09/08 02:57:07;;;;;;;1.73;1.30;;;20.90;70.40;;;;;;5109649;28;20091;-64
2023/09/08 02:59:33;;;;;;;1.80;1.70;;;20.90;70.40;;;;;;5110284;28;20028;-67
2023/09/08 03:02:00;;;;;;;2.13;1.55;;;20.90;70.50;;;;;;5109312;28;20035;-67
2023/09/08 03:04:25;;;;;;;2.08;1.38;;;20.90;70.50;;;;;;5110048;28;20024;-66
2023/09/08 03:06:51;;;;;;;3.05;1.58;;;20.80;70.50;;;;;;5110257;27;20088;-67
2023/09/08 03:09:16;;;;;;;2.47;1.73;;;20.80;70.60;;;;;;5110248;28;20055;-67
2023/09/08 03:11:42;;;;;;;1.60;1.50;;;20.80;70.70;;;;;;5107544;28;20066;-67
2023/09/08 03:14:08;;;;;;;2.80;1.95;;;20.80;70.60;;;;;;5103371;28;20023;-67
2023/09/08 03:16:33;;;;;;;3.83;1.90;;;20.70;70.80;;;;;;5110321;28;20470;-67
2023/09/08 03:18:59;;;;;;;3.75;1.80;;;20.70;70.80;;;;;;5111118;27;20024;-67
2023/09/08 03:21:25;;;;;;;2.20;1.85;;;20.70;71.00;;;;;;5108585;28;20038;-67
2023/09/08 03:23:50;;;;;;;2.10;1.42;;;20.60;71.70;;;;;;5110819;28;20376;-67
2023/09/08 03:26:16;;;;;;;2.53;1.60;;;20.60;71.10;;;;;;5109064;28;20073;-67
2023/09/08 03:28:43;;;;;;;4.28;2.25;;;20.60;71.20;;;;;;5109948;28;20084;-65
2023/09/08 03:31:08;;;;;;;2.58;2.03;;;20.60;71.30;;;;;;5110299;28;20504;-67
2023/09/08 03:33:34;;;;;;;3.05;1.50;;;20.60;71.30;;;;;;5106815;28;20053;-65
2023/09/08 03:36:00;;;;;;;2.45;1.35;;;20.60;71.30;;;;;;5110913;28;20042;-66
2023/09/08 03:38:27;;;;;;;1.67;1.58;;;20.50;71.30;;;;;;5104559;28;20125;-66
2023/09/08 03:40:52;;;;;;;2.83;1.75;;;20.50;71.30;;;;;;5107858;28;20028;-66
2023/09/08 03:43:18;;;;;;;1.75;1.35;;;20.50;71.30;;;;;;5098758;28;20024;-68
2023/09/08 03:45:49;;;;;;;2.55;1.48;;;20.50;71.30;;;;;;5108289;28;20043;-67
2023/09/08 03:48:16;;;;;;;3.03;2.03;;;20.50;71.40;;;;;;5087525;27;20396;-66
2023/09/08 03:50:45;;;;;;;4.05;1.90;;;20.40;71.40;;;;;;5109197;28;20042;-67
2023/09/08 03:53:11;;;;;;;2.15;1.63;;;20.40;71.40;;;;;;5109558;28;20046;-65
2023/09/08 03:55:37;;;;;;;1.77;1.45;;;20.40;71.40;;;;;;5110290;28;20118;-67
2023/09/08 03:58:02;;;;;;;2.17;1.73;;;20.40;71.50;;;;;;5109127;28;20122;-65
2023/09/08 04:00:28;;;;;;;2.70;1.90;;;20.40;71.60;;;;;;5108534;28;20024;-66
2023/09/08 04:02:54;;;;;;;2.25;1.50;;;20.40;71.60;;;;;;5107651;28;20085;-69
2023/09/08 04:05:20;;;;;;;2.97;1.98;;;20.40;71.50;;;;;;5103794;28;20495;-66
2023/09/08 04:07:46;;;;;;;1.98;1.77;;;20.40;71.60;;;;;;5104464;28;20042;-65
2023/09/08 04:10:13;;;;;;;1.85;1.50;;;20.30;71.60;;;;;;5104578;28;20088;-66
2023/09/08 04:12:39;;;;;;;2.25;1.70;;;20.30;71.70;;;;;;5107643;28;20024;-66
2023/09/08 04:15:06;;;;;;;3.30;2.20;;;20.30;71.70;;;;;;5107719;28;20036;-66
2023/09/08 04:17:31;;;;;;;2.45;1.40;;;20.30;71.70;;;;;;5108236;28;20027;-68
2023/09/08 04:19:57;;;;;;;3.15;2.10;;;20.30;71.80;;;;;;5109603;27;20031;-65
2023/09/08 04:22:23;;;;;;;2.03;1.83;;;20.30;71.80;;;;;;5107075;28;20038;-67
2023/09/08 04:24:48;;;;;;;1.73;1.63;;;20.20;71.80;;;;;;5109908;28;20500;-67
2023/09/08 04:27:14;;;;;;;2.63;1.60;;;20.20;71.90;;;;;;5108406;28;20036;-68
2023/09/08 04:29:40;;;;;;;2.00;1.60;;;20.20;71.90;;;;;;5096649;27;20368;-67
2023/09/08 04:32:08;;;;;;;2.08;1.40;;;20.20;71.90;;;;;;5106041;28;20474;-68
2023/09/08 04:34:39;;;;;;;3.03;1.73;;;20.20;72.00;;;;;;5107378;28;20031;-68
2023/09/08 04:37:05;;;;;;;2.78;1.73;;;20.20;72.00;;;;;;5100272;28;20059;-68
2023/09/08 04:39:31;;;;;;;2.17;1.45;;;20.20;72.10;;;;;;5106518;28;20459;-68
2023/09/08 04:41:57;;;;;;;3.17;1.80;;;20.10;72.00;;;;;;5109706;28;20517;-68
2023/09/08 04:44:22;;;;;;;3.22;2.28;;;20.10;72.10;;;;;;5106078;28;20023;-67
2023/09/08 04:46:48;;;;;;;2.80;1.30;;;20.10;72.10;;;;;;5107210;28;20047;-68
2023/09/08 04:49:14;;;;;;;2.67;1.67;;;20.10;72.10;;;;;;5104415;28;20042;-68
2023/09/08 04:51:40;;;;;;;2.80;1.98;;;20.10;72.10;;;;;;5106206;28;20073;-68
2023/09/08 04:54:05;;;;;;;2.08;1.50;;;20.00;72.20;;;;;;5105463;28;20024;-67
2023/09/08 04:56:31;;;;;;;1.75;1.48;;;20.00;72.20;;;;;;5105910;28;20084;-67
2023/09/08 04:58:58;;;;;;;1.70;1.40;;;20.00;72.30;;;;;;5107005;28;20043;-68
2023/09/08 05:01:23;;;;;;;1.95;1.73;;;20.00;72.30;;;;;;5109336;28;20571;-67
2023/09/08 05:03:49;;;;;;;2.72;1.73;;;20.00;72.40;;;;;;5107763;28;20031;-67
2023/09/08 05:06:15;;;;;;;2.38;1.80;;;20.00;72.40;;;;;;5108880;28;20088;-67
2023/09/08 05:08:40;;;;;;;3.55;2.15;;;20.00;72.50;;;;;;5107347;28;20051;-67
2023/09/08 05:11:06;;;;;;;3.15;2.20;;;19.90;72.50;;;;;;5107961;28;20031;-67
2023/09/08 05:13:32;;;;;;;3.25;1.48;;;19.90;72.70;;;;;;5100880;28;20038;-68
2023/09/08 05:15:59;;;;;;;3.00;2.00;;;19.90;72.70;;;;;;5103616;28;20107;-66
2023/09/08 05:18:28;;;;;;;6.63;2.08;;;19.90;72.90;;;;;;5107599;28;20034;-66
2023/09/08 05:20:54;;;;;;;2.65;1.77;;;19.90;72.90;;;;;;5104642;28;20028;-66
2023/09/08 05:23:19;;;;;;;3.33;1.73;;;20.00;73.10;;;;;;5104268;28;20031;-66
2023/09/08 05:25:45;;;;;;;2.80;1.80;;;19.90;73.10;;;;;;5101435;28;20036;-68
2023/09/08 05:28:11;;;;;;;2.17;1.52;;;19.90;73.40;;;;;;5099717;28;20069;-68
2023/09/08 05:30:37;;;;;;;4.75;2.80;;;19.90;73.30;;;;;;5097978;28;20035;-67
2023/09/08 05:33:02;;;;;;;3.38;1.80;;;20.00;73.40;;;;;;5103417;28;20082;-66
2023/09/08 05:35:28;;;;;;;3.13;1.90;;;20.00;73.30;;;;;;5102103;28;20379;-66
2023/09/08 05:37:54;;;;;;;2.90;1.60;;;20.10;73.40;;;;;;5102931;28;20020;-66
2023/09/08 05:40:23;;;;;;;4.03;2.10;;;20.10;73.20;;;;;;5107765;28;20020;-67
2023/09/08 05:42:49;;;;;;;2.45;1.75;;;20.10;73.20;;;;;;5107210;28;20490;-65
2023/09/08 05:45:15;;;;;;;3.63;1.70;;;20.10;73.80;;;;;;5106681;28;20031;-65
2023/09/08 05:47:40;;;;;;;2.92;2.25;;;20.20;73.30;;;;;;5106853;28;20031;-65
2023/09/08 05:50:06;;;;;;;5.18;2.42;;;20.20;73.30;;;;;;5104033;28;20049;-66
2023/09/08 05:52:33;;;;;;;3.78;1.80;;;20.20;73.30;;;;;;5105361;28;20027;-64
2023/09/08 05:54:59;;;;;;;2.55;2.22;;;20.30;73.40;;;;;;5102651;28;20387;-64
2023/09/08 05:57:24;;;;;;;2.58;1.48;;;20.30;73.40;;;;;;5105279;28;20039;-64
2023/09/08 05:59:50;;;;;;;2.88;2.00;;;20.40;73.50;;;;;;5105346;28;20032;-64
2023/09/08 06:02:16;;;;;;;2.42;1.67;;;20.40;73.50;;;;;;5101766;28;20036;-67
2023/09/08 06:04:41;;;;;;;2.83;2.13;;;20.50;73.50;;;;;;5105085;28;20062;-65
2023/09/08 06:07:07;;;;;;;2.10;1.80;;;20.50;73.40;;;;;;5097306;28;20650;-65
2023/09/08 06:09:33;;;;;;;1.95;1.23;;;20.60;73.50;;;;;;5102228;28;20104;-67
2023/09/08 06:11:58;;;;;;;3.28;1.60;;;20.70;73.30;;;;;;5106830;28;20020;-65
2023/09/08 06:14:24;;;;;;;2.78;1.65;;;20.70;73.10;;;;;;5107670;28;20030;-65
2023/09/08 06:16:50;;;;;;;2.38;1.73;;;20.80;72.90;;;;;;5107933;28;20136;-64
2023/09/08 06:19:15;;;;;;;2.20;1.95;;;20.90;72.80;;;;;;5107750;28;20081;-64
2023/09/08 06:21:41;;;;;;;3.30;2.15;;;21.00;72.70;;;;;;5106601;28;20039;-64
2023/09/08 06:24:07;;;;;;;2.75;2.20;;;21.10;72.70;;;;;;5107463;28;20034;-64
2023/09/08 06:26:33;;;;;;;3.33;2.15;;;21.20;72.70;;;;;;5110678;28;20486;-67
2023/09/08 06:28:58;;;;;;;3.17;1.92;;;21.30;72.60;;;;;;5110699;27;20462;-67
2023/09/08 06:31:24;;;;;;;3.03;1.95;;;21.30;72.50;;;;;;5112043;28;20124;-67
2023/09/08 06:33:51;;;;;;;3.28;2.15;;;21.40;72.40;;;;;;5110442;28;20423;-67
2023/09/08 06:36:18;;;;;;;2.05;1.30;;;21.50;72.30;;;;;;5109643;28;20122;-64
2023/09/08 06:38:44;;;;;;;2.75;2.03;;;21.60;72.30;;;;;;5110477;27;20027;-67
2023/09/08 06:41:13;;;;;;;2.45;1.58;;;21.70;72.20;;;;;;5111910;28;20501;-67
2023/09/08 06:43:38;;;;;;;3.90;2.25;;;21.70;72.10;;;;;;5109672;28;20031;-67
2023/09/08 06:46:04;;;;;;;3.28;1.42;;;21.80;72.00;;;;;;5111610;28;20401;-67
2023/09/08 06:48:31;;;;;;;2.13;1.77;;;21.90;71.90;;;;;;5109485;28;20028;-65
2023/09/08 06:50:56;;;;;;;1.90;1.60;;;22.00;71.70;;;;;;5107409;27;20114;-67
2023/09/08 06:53:23;;;;;;;2.55;2.10;;;22.00;71.60;;;;;;5107324;27;20103;-67
2023/09/08 06:55:49;;;;;;;4.07;2.10;;;22.10;71.50;;;;;;5107188;28;20051;-66
2023/09/08 06:58:15;;;;;;;3.65;2.28;;;22.10;71.30;;;;;;5100697;28;20024;-67
2023/09/08 07:00:41;;;;;;;4.07;1.83;;;22.20;71.20;;;;;;5102868;28;20090;-67
2023/09/08 07:03:08;;;;;;;3.17;1.70;;;22.20;71.10;;;;;;5102691;28;20054;-65
2023/09/08 07:05:34;;;;;;;4.30;1.92;;;22.30;71.00;;;;;;5111176;28;20054;-65
2023/09/08 07:07:59;;;;;;;2.08;1.42;;;22.30;70.90;;;;;;5104820;28;20378;-65
2023/09/08 07:10:25;;;;;;;3.92;1.83;;;22.40;71.00;;;;;;5104818;28;20103;-64
2023/09/08 07:12:51;;;;;;;3.15;1.92;;;22.40;70.90;;;;;;5104606;28;20019;-64
2023/09/08 07:15:16;;;;;;;2.85;1.70;;;22.50;70.70;;;;;;5109972;28;20505;-64
2023/09/08 07:17:42;;;;;;;2.67;2.05;;;22.50;70.50;;;;;;5107903;28;20035;-64
2023/09/08 07:20:08;;;;;;;2.03;1.83;;;22.60;70.40;;;;;;5106752;28;20030;-65
2023/09/08 07:22:34;;;;;;;2.55;2.03;;;22.60;70.20;;;;;;5108943;28;20059;-67
2023/09/08 07:25:00;;;;;;;2.35;1.83;;;22.70;70.20;;;;;;5099475;28;20036;-65
2023/09/08 07:27:25;;;;;;;3.38;2.08;;;22.70;70.10;;;;;;5094344;27;20024;-67
2023/09/08 07:29:51;;;;;;;2.72;1.83;;;22.80;70.00;;;;;;5102287;28;20028;-67
2023/09/08 07:32:19;;;;;;;2.78;1.80;;;22.90;69.90;;;;;;5098494;27;20118;-65
2023/09/08 07:34:45;;;;;;;2.67;1.92;;;22.90;69.60;;;;;;5081174;28;20042;-65
2023/09/08 07:37:10;;;;;;;6.60;2.08;;;23.00;69.40;;;;;;5095232;27;20036;-67
2023/09/08 07:39:36;;;;;;;3.08;1.52;;;23.10;69.30;;;;;;5100218;27;20040;-66
2023/09/08 07:42:02;;;;;;;4.32;2.72;;;23.20;69.10;;;;;;5099854;27;20027;-67
2023/09/08 07:44:28;;;;;;;3.60;1.55;;;23.20;68.90;;;;;;5095741;27;20039;-68
2023/09/08 07:46:56;;;;;;;5.00;2.75;;;23.30;68.80;;;;;;5095351;27;20031;-69
2023/09/08 07:49:23;;;;;;;3.15;2.10;;;23.40;68.70;;;;;;5098123;27;20038;-68
2023/09/08 07:51:49;;;;;;;5.45;2.47;;;23.40;68.70;;;;;;5098505;27;20422;-68
2023/09/08 07:54:14;;;;;;;2.70;1.88;;;23.50;68.70;;;;;;5101949;27;20020;-67
2023/09/08 07:56:43;;;;;;;3.05;2.47;;;23.50;68.40;;;;;;5104597;28;20031;-67
2023/09/08 07:59:08;;;;;;;2.42;2.00;;;23.50;68.20;;;;;;5104942;27;20102;-67
2023/09/08 08:01:34;;;;;;;5.93;2.60;;;23.60;68.20;;;;;;5100718;28;20047;-65
2023/09/08 08:04:02;;;;;;;3.53;1.80;;;23.70;68.10;;;;;;5105081;28;20473;-64
2023/09/08 08:06:28;;;;;;;2.30;1.98;;;23.70;68.00;;;;;;5103563;28;20027;-65
2023/09/08 08:08:54;;;;;;;2.65;1.70;;;23.80;68.00;;;;;;5099975;28;20039;-65
2023/09/08 08:11:20;;;;;;;2.30;1.80;;;23.80;67.80;;;;;;5103600;27;20027;-64
2023/09/08 08:13:46;;;;;;;2.78;2.13;;;23.90;67.80;;;;;;5099866;28;20108;-64
2023/09/08 08:16:12;;;;;;;3.25;1.88;;;24.00;67.60;;;;;;5105259;28;20062;-65
2023/09/08 08:18:37;;;;;;;4.00;2.80;;;24.10;67.50;;;;;;5106045;27;20043;-67
2023/09/08 08:21:04;;;;;;;3.45;2.17;;;24.20;68.00;;;;;;5094532;28;20115;-67
2023/09/08 08:23:30;;;;;;;2.20;1.75;;;24.20;67.20;;;;;;5094208;27;20183;-68
2023/09/08 08:25:57;;;;;;;4.47;3.33;;;24.30;67.10;;;;;;5096029;28;20044;-67
2023/09/08 08:28:24;;;;;;;4.28;2.20;;;24.40;66.80;;;;;;5095024;27;20107;-68
2023/09/08 08:30:50;;;;;;;2.33;1.98;;;24.40;66.60;;;;;;5085161;28;20096;-68
2023/09/08 08:33:16;;;;;;;2.80;2.22;;;24.50;66.60;;;;;;5099029;28;20031;-68
2023/09/08 08:35:41;;;;;;;1.90;1.73;;;24.60;66.50;;;;;;5102493;28;20031;-68
2023/09/08 08:38:07;;;;;;;4.22;2.13;;;24.70;66.30;;;;;;5102101;28;20035;-68
2023/09/08 08:40:34;;;;;;;2.95;1.95;;;24.80;66.20;;;;;;5104850;28;20035;-68
2023/09/08 08:43:00;;;;;;;2.13;1.65;;;24.90;66.10;;;;;;5101234;28;20039;-68
2023/09/08 08:45:26;;;;;;;2.08;1.38;;;25.00;66.00;;;;;;5099455;28;20428;-68
2023/09/08 08:47:53;;;;;;;2.35;1.70;;;25.10;65.80;;;;;;5105469;28;20027;-67
2023/09/08 08:50:20;;;;;;;2.85;1.58;;;25.30;65.60;;;;;;5107626;28;20027;-68
2023/09/08 08:52:46;;;;;;;2.53;1.60;;;25.40;65.40;;;;;;5107116;28;20069;-68
2023/09/08 08:55:15;;;;;;;1.88;1.70;;;25.50;65.30;;;;;;5107958;28;20099;-68
2023/09/08 08:57:41;;;;;;;3.30;1.92;;;25.60;65.30;;;;;;5102166;28;20066;-68
2023/09/08 09:00:11;;;;;;;3.10;2.65;;;25.70;65.30;;;;;;5096959;27;20069;-68
2023/09/08 09:02:42;;;;;;;2.40;1.67;;;25.70;65.00;;;;;;5098773;28;20036;-66
2023/09/08 09:05:10;;;;;;;2.47;1.80;;;25.80;64.90;;;;;;5118613;27;20024;-63
2023/09/08 09:07:37;;;;;;;3.45;1.83;;;25.90;65.00;;;;;;5104355;27;20427;-63
2023/09/08 09:10:04;;;;;;;1.92;1.73;;;26.00;65.20;;;;;;5103850;28;20509;-66
2023/09/08 09:12:29;;;;;;;2.88;1.90;;;26.10;65.00;;;;;;5106573;28;20031;-63
2023/09/08 09:14:57;;;;;;;2.50;1.70;;;26.20;64.90;;;;;;5106980;28;20024;-63
2023/09/08 09:17:23;;;;;;;3.08;1.90;;;26.40;65.00;;;;;;5101390;28;20100;-63
2023/09/08 09:19:49;;;;;;;3.10;1.98;;;26.50;64.20;;;;;;5107510;28;20043;-61
2023/09/08 09:22:19;;;;;;;1.98;1.65;;;26.60;64.20;;;;;;5104893;28;20066;-63
2023/09/08 09:24:45;;;;;;;3.55;2.25;;;26.70;64.20;;;;;;5107547;28;20024;-62
2023/09/08 09:27:11;;;;;;;2.20;1.75;;;26.80;64.00;;;;;;5104414;28;20039;-62
2023/09/08 09:29:58;;;;;;;4.20;2.35;;;26.90;64.00;;;;;;5109298;28;20039;-63
2023/09/08 09:32:25;;;;;;;2.55;1.80;;;27.00;63.70;;;;;;5087691;28;20035;-62
2023/09/08 09:34:54;;;;;;;2.60;2.15;;;27.10;63.50;;;;;;5095172;28;20040;-62
2023/09/08 09:37:20;;;;;;;2.22;1.83;;;27.20;63.40;;;;;;5098506;28;20436;-63
2023/09/08 09:39:55;;;;;;;3.63;2.10;;;27.30;63.10;;;;;;5099857;28;20100;-62
2023/09/08 09:42:21;;;;;;;1.85;1.67;;;27.40;62.70;;;;;;5096936;28;20052;-62
2023/09/08 09:44:53;;;;;;;3.03;2.47;;;27.50;62.70;;;;;;5103763;28;20064;-62
2023/09/08 09:47:20;;;;;;;4.28;2.15;;;27.60;62.60;;;;;;5102368;28;20405;-63
2023/09/08 09:49:46;;;;;;;3.05;2.00;;;27.70;62.60;;;;;;5107364;28;20023;-63
2023/09/08 09:52:14;;;;;;;3.83;1.98;;;27.80;62.20;;;;;;5102554;28;20118;-63
2023/09/08 09:54:42;;;;;;;2.78;2.08;;;27.90;61.90;;;;;;5106430;28;21136;-63
2023/09/08 09:57:12;;;;;;;2.13;1.90;;;28.10;62.00;;;;;;5106117;28;20074;-63
2023/09/08 09:59:42;;;;;;;4.32;2.30;;;28.10;61.50;;;;;;5102797;28;20042;-62
2023/09/08 10:02:13;;;;;;;5.88;2.22;;;28.20;61.30;;;;;;5107534;28;20023;-62
2023/09/08 10:04:43;;;;;;;3.30;2.08;;;28.30;61.10;;;;;;5110937;28;20030;-62
2023/09/08 10:07:09;;;;;;;3.95;2.30;;;28.40;61.00;;;;;;5110657;28;20043;-62
2023/09/08 10:09:37;;;;;;;2.00;1.55;;;28.50;60.60;;;;;;5110408;28;20684;-62
2023/09/08 10:12:05;;;;;;;3.83;1.92;;;28.60;60.40;;;;;;5109059;28;20050;-62
2023/09/08 10:14:33;;;;;;;2.20;1.60;;;28.70;60.40;;;;;;5102601;28;20042;-63
2023/09/08 10:17:01;;;;;;;3.17;1.58;;;28.80;60.30;;;;;;5106173;27;20031;-62
2023/09/08 10:19:28;;;;;;;3.10;2.00;;;29.00;60.20;;;;;;5106686;28;20082;-63
2023/09/08 10:22:00;;;;;;;3.78;2.05;;;29.10;59.20;;;;;;5104643;28;20027;-65
2023/09/08 10:24:33;;;;;;;3.30;2.28;;;29.30;59.20;;;;;;5109716;28;20031;-65
2023/09/08 10:27:09;;;;;;;2.20;1.85;;;29.40;58.70;;;;;;5109230;28;20276;-65
2023/09/08 10:29:35;;;;;;;4.63;2.67;;;29.60;58.60;;;;;;5105842;28;20422;-62
2023/09/08 10:32:02;;;;;;;2.42;2.22;;;29.70;58.70;;;;;;5109138;28;20055;-63
2023/09/08 10:34:30;;;;;;;2.30;1.88;;;29.80;58.40;;;;;;5108563;27;20031;-62
2023/09/08 10:36:55;;;;;;;3.83;2.30;;;30.00;58.00;;;;;;5104020;28;20028;-63
2023/09/08 10:39:38;;;;;;;4.32;2.83;;;30.10;58.00;;;;;;5103865;27;20028;-63
2023/09/08 10:42:16;;;;;;;2.67;1.95;;;30.10;57.50;;;;;;5104805;28;20022;-63
2023/09/08 10:44:52;;;;;;;2.70;2.22;;;30.20;57.60;;;;;;5098953;28;20262;-63
2023/09/08 10:47:36;;;;;;;2.70;1.98;;;30.30;57.80;;;;;;5102949;28;20024;-63
2023/09/08 10:50:03;;;;;;;3.95;1.95;;;30.60;57.90;;;;;;5106515;28;20016;-63
2023/09/08 10:52:29;;;;;;;3.10;2.28;;;30.80;57.40;;;;;;5107989;28;20055;-63
2023/09/08 10:54:56;;;;;;;3.60;1.90;;;30.90;56.90;;;;;;5111062;28;20088;-63
2023/09/08 10:57:24;;;;;;;1.95;1.75;;;31.10;57.00;;;;;;5108563;28;20039;-63
2023/09/08 11:00:12;;;;;;;1.35;1.25;;;31.30;56.80;;;;;;5110069;27;20035;-63
2023/09/08 11:02:47;;;;;;;2.60;1.63;;;31.50;56.50;;;;;;5106882;28;20035;-64
2023/09/08 11:05:14;;;;;;;2.65;1.70;;;31.60;56.00;;;;;;5109234;28;20039;-63
2023/09/08 11:07:42;;;;;;;2.25;1.60;;;31.80;55.80;;;;;;5106447;27;20067;-63
2023/09/08 11:10:09;;;;;;;2.00;1.77;;;31.90;55.30;;;;;;5101891;27;20341;-63
2023/09/08 11:12:35;;;;;;;3.95;1.90;;;32.00;54.90;;;;;;5104089;28;20370;-63
2023/09/08 11:15:07;;;;;;;2.00;1.42;;;32.10;55.00;;;;;;5101700;28;20020;-64
2023/09/08 11:17:34;;;;;;;;;;;32.20;54.10;;;;;;5107025;28;20109;-63
2023/09/08 11:20:00;;;;;;;2.08;1.60;;;32.40;53.90;;;;;;5105510;28;20385;-63
2023/09/08 11:22:26;;;;;;;1.70;1.60;;;32.40;52.50;;;;;;5107253;28;20110;-63
2023/09/08 11:24:53;;;;;;;2.30;1.95;;;32.50;53.30;;;;;;5105297;28;20046;-63
2023/09/08 11:27:20;;;;;;;2.63;2.10;;;32.40;51.40;;;;;;5103169;28;20038;-63
2023/09/08 11:29:46;;;;;;;1.50;1.40;;;32.50;52.40;;;;;;5106722;28;20066;-63
2023/09/08 11:32:12;;;;;;;2.65;1.90;;;32.50;52.40;;;;;;5105967;28;20019;-63
2023/09/08 11:34:40;;;;;;;2.08;1.70;;;32.60;52.40;;;;;;5106344;28;20092;-63
2023/09/08 11:37:15;;;;;;;2.08;1.67;;;32.60;52.10;;;;;;5106916;28;20020;-63
2023/09/08 11:39:42;;;;;;;1.60;1.50;;;32.70;52.50;;;;;;5099930;28;20028;-63
2023/09/08 11:42:11;;;;;;;2.92;2.03;;;32.80;52.70;;;;;;5104824;28;20042;-63
2023/09/08 11:44:37;;;;;;;2.65;1.90;;;33.00;52.00;;;;;;5104206;28;20031;-64
2023/09/08 11:47:04;;;;;;;2.42;1.70;;;33.20;52.00;;;;;;5104468;28;20032;-64
2023/09/08 11:49:36;;;;;;;2.13;1.50;;;33.30;51.80;;;;;;5099390;28;20028;-65
2023/09/08 11:52:03;;;;;;;2.53;1.42;;;33.50;51.60;;;;;;5105047;27;20041;-65
2023/09/08 11:54:31;;;;;;;2.15;1.95;;;33.50;51.30;;;;;;5093006;27;20031;-66
2023/09/08 11:56:58;;;;;;;3.00;1.92;;;33.50;51.40;;;;;;5103693;27;20979;-65
2023/09/08 11:59:24;;;;;;;1.90;1.77;;;33.60;51.20;;;;;;5096780;27;20540;-64
2023/09/08 12:01:50;;;;;;;3.05;2.00;;;33.80;51.10;;;;;;5095178;27;20031;-65
2023/09/08 12:04:20;;;;;;;2.20;1.92;;;33.80;50.70;;;;;;5099632;27;20039;-65
2023/09/08 12:06:51;;;;;;;2.03;1.83;;;33.90;50.20;;;;;;5105783;27;20040;-65
2023/09/08 12:09:17;;;;;;;4.03;1.95;;;34.00;50.00;;;;;;5107322;28;20123;-65
2023/09/08 12:11:43;;;;;;;2.25;2.05;;;34.10;50.10;;;;;;5097275;27;20501;-65
2023/09/08 12:14:11;;;;;;;1.70;1.58;;;34.20;50.10;;;;;;5099727;27;20023;-66
2023/09/08 12:16:36;;;;;;;2.20;1.70;;;34.30;50.00;;;;;;5102352;28;20062;-65
2023/09/08 12:19:02;;;;;;;1.83;1.60;;;34.40;49.50;;;;;;5097658;27;20028;-65
2023/09/08 12:21:28;;;;;;;2.15;1.80;;;34.30;49.20;;;;;;5105469;27;20046;-65
2023/09/08 12:23:54;;;;;;;2.15;1.73;;;34.30;49.40;;;;;;5100733;27;20036;-65
2023/09/08 12:26:21;;;;;;;6.03;2.90;;;34.30;49.30;;;;;;5099743;28;20047;-62
2023/09/08 12:28:47;;;;;;;1.80;1.70;;;34.40;49.10;;;;;;5102704;27;20095;-62
2023/09/08 12:31:17;;;;;;;4.03;2.45;;;34.40;48.70;;;;;;5093500;27;20201;-62
2023/09/08 12:33:44;;;;;;;1.80;1.70;;;34.40;49.60;;;;;;5096008;28;20447;-62
2023/09/08 12:36:17;;;;;;;2.58;2.08;;;34.50;49.20;;;;;;5100722;28;20297;-62
2023/09/08 12:38:53;;;;;;;2.47;2.17;;;34.60;48.80;;;;;;5099529;27;20024;-62
2023/09/08 12:41:19;;;;;;;3.25;1.75;;;34.70;48.70;;;;;;5102143;28;20506;-62
2023/09/08 12:43:45;;;;;;;2.75;1.98;;;34.70;49.10;;;;;;5100582;28;20039;-65
2023/09/08 12:46:12;;;;;;;2.17;2.00;;;34.80;49.40;;;;;;5098088;28;20058;-66